Time;durP1;ratioP1;P1;durP2;ratioP2;P2;SDS_P1;SDS_P2;PMS_P1;PMS_P2;Temp;Humidity;BMP_temperature;BMP_pressure;BME280_temperature;BME280_humidity;BME280_pressure;Samples;Min_cycle;Max_cycle;Signal;HPM_P1;HPM_P2
2021/07/08 00:00:18;;;;;;;11.18;4.28;;;;;;;16.69;100.00;96958.44;5020458;28;20037;-64
2021/07/08 00:02:43;;;;;;;5.63;3.70;;;;;;;16.56;100.00;96958.09;5022326;28;20037;-62
2021/07/08 00:05:12;;;;;;;6.63;3.45;;;;;;;16.28;100.00;96957.00;5019083;28;20537;-62
2021/07/08 00:07:38;;;;;;;4.68;3.63;;;;;;;16.18;100.00;96968.84;5023803;28;20107;-63
2021/07/08 00:10:12;;;;;;;5.97;3.92;;;;;;;16.11;100.00;96966.09;5020169;28;20076;-63
2021/07/08 00:12:38;;;;;;;6.35;4.55;;;;;;;15.97;100.00;96964.13;5022782;28;20042;-62
2021/07/08 00:15:14;;;;;;;6.97;4.43;;;;;;;15.94;100.00;96954.66;5019012;28;20372;-63
2021/07/08 00:17:40;;;;;;;6.70;4.97;;;;;;;15.90;100.00;96953.06;5020029;28;20049;-63
2021/07/08 00:20:10;;;;;;;6.88;4.65;;;;;;;15.90;100.00;96951.13;5018058;28;20127;-63
2021/07/08 00:22:35;;;;;;;8.73;5.43;;;;;;;15.90;100.00;96948.34;5023641;28;20048;-62
2021/07/08 00:25:04;;;;;;;7.95;5.05;;;;;;;15.80;100.00;96936.13;5025102;28;20041;-63
2021/07/08 00:27:30;;;;;;;8.68;6.45;;;;;;;15.84;100.00;96939.66;5047373;28;20080;-63
2021/07/08 00:29:55;;;;;;;11.48;7.05;;;;;;;15.87;100.00;96946.38;5043809;28;20073;-63
2021/07/08 00:32:20;;;;;;;8.55;7.10;;;;;;;15.98;100.00;96949.13;5044894;28;20048;-62
2021/07/08 00:34:46;;;;;;;9.60;7.15;;;;;;;16.02;100.00;96947.94;5046943;28;20163;-63
2021/07/08 00:37:11;;;;;;;10.95;7.53;;;;;;;16.02;100.00;96939.66;5037069;28;20045;-62
2021/07/08 00:39:36;;;;;;;9.52;7.03;;;;;;;15.96;100.00;96932.94;5043225;28;20052;-62
2021/07/08 00:42:02;;;;;;;10.10;7.45;;;;;;;15.93;100.00;96922.69;5043658;28;20055;-62
2021/07/08 00:44:27;;;;;;;12.40;8.48;;;;;;;15.90;100.00;96923.50;5038551;28;20045;-63
2021/07/08 00:46:52;;;;;;;14.40;8.93;;;;;;;15.91;100.00;96916.00;5043456;28;20045;-62
2021/07/08 00:49:18;;;;;;;15.52;8.20;;;;;;;15.89;100.00;96913.63;5036368;28;20140;-62
2021/07/08 00:51:43;;;;;;;13.52;9.10;;;;;;;15.83;100.00;96904.19;5044422;28;20065;-62
2021/07/08 00:54:10;;;;;;;14.05;8.70;;;;;;;15.86;100.00;96886.78;5051632;28;20048;-62
2021/07/08 00:56:36;;;;;;;12.85;9.07;;;;;;;15.83;100.00;96885.63;5052905;28;20467;-62
2021/07/08 00:59:07;;;;;;;11.85;8.18;;;;;;;15.92;100.00;96887.97;5045830;28;20056;-63
2021/07/08 01:01:32;;;;;;;11.45;7.90;;;;;;;15.90;100.00;96892.31;5043012;28;20037;-63
2021/07/08 01:04:02;;;;;;;13.02;7.95;;;;;;;15.86;100.00;96897.84;5041719;28;20036;-63
2021/07/08 01:06:29;;;;;;;10.88;7.40;;;;;;;15.88;100.00;96898.22;5036230;28;20064;-63
2021/07/08 01:08:55;;;;;;;9.18;6.90;;;;;;;15.91;100.00;96896.66;5042216;28;20045;-64
2021/07/08 01:11:22;;;;;;;10.85;7.43;;;;;;;15.86;100.00;96887.59;5036894;28;20132;-63
2021/07/08 01:13:48;;;;;;;9.68;7.22;;;;;;;15.79;100.00;96890.38;5042171;28;20044;-66
2021/07/08 01:16:13;;;;;;;10.00;7.68;;;;;;;15.77;100.00;96891.94;5035863;28;20041;-63
2021/07/08 01:18:39;;;;;;;10.13;7.20;;;;;;;15.76;100.00;96869.06;5042212;28;20047;-65
2021/07/08 01:21:27;;;;;;;11.10;6.90;;;;;;;15.73;100.00;96863.50;5035278;28;20393;-65
2021/07/08 01:23:55;;;;;;;10.05;7.25;;;;;;;15.67;100.00;96891.53;5042275;28;20041;-64
2021/07/08 01:26:21;;;;;;;11.52;8.13;;;;;;;15.64;100.00;96902.56;5037303;28;20521;-65
2021/07/08 01:28:50;;;;;;;14.07;8.15;;;;;;;15.66;100.00;96908.47;5043391;28;20040;-64
2021/07/08 01:31:17;;;;;;;13.73;8.35;;;;;;;15.65;100.00;96899.41;5037333;28;20091;-65
2021/07/08 01:33:42;;;;;;;12.75;7.28;;;;;;;15.61;100.00;96908.88;5041473;28;20106;-66
2021/07/08 01:36:08;;;;;;;14.75;7.68;;;;;;;15.67;100.00;96934.91;5037877;28;20049;-65
2021/07/08 01:38:33;;;;;;;15.25;8.15;;;;;;;15.80;100.00;96955.44;5042223;28;20045;-66
2021/07/08 01:41:00;;;;;;;12.05;7.70;;;;;;;15.82;100.00;96941.25;5040911;28;20040;-66
2021/07/08 01:43:25;;;;;;;12.70;7.30;;;;;;;15.76;100.00;96931.78;5019909;28;20046;-65
2021/07/08 01:45:51;;;;;;;12.05;8.48;;;;;;;15.67;100.00;96926.63;5026399;28;20105;-65
2021/07/08 01:48:16;;;;;;;12.68;7.47;;;;;;;15.65;100.00;96924.25;5036964;28;20076;-66
2021/07/08 01:50:42;;;;;;;12.02;7.95;;;;;;;15.67;100.00;96930.19;5037350;28;20094;-64
2021/07/08 01:53:07;;;;;;;13.02;8.90;;;;;;;15.69;100.00;96924.25;5026966;28;20053;-65
2021/07/08 01:55:33;;;;;;;15.43;8.90;;;;;;;15.63;100.00;96917.56;5041139;28;20041;-65
2021/07/08 01:58:01;;;;;;;12.27;8.13;;;;;;;15.62;100.00;96927.81;5048194;28;20525;-66
2021/07/08 02:00:26;;;;;;;15.60;8.32;;;;;;;15.90;100.00;96942.03;5030464;28;20049;-65
2021/07/08 02:02:52;;;;;;;13.38;8.55;;;;;;;16.01;100.00;96946.38;5039929;28;20055;-64
2021/07/08 02:05:18;;;;;;;13.10;8.77;;;;;;;15.98;100.00;96943.59;5034183;28;20917;-65
2021/07/08 02:07:44;;;;;;;13.90;8.68;;;;;;;15.95;100.00;96938.88;5036761;28;20041;-66
2021/07/08 02:10:11;;;;;;;12.07;8.43;;;;;;;15.93;100.00;96935.72;5034947;28;20139;-65
2021/07/08 02:12:38;;;;;;;17.02;9.45;;;;;;;15.82;100.00;96922.69;5037451;28;20124;-66
2021/07/08 02:15:05;;;;;;;15.32;9.93;;;;;;;15.69;100.00;96910.47;5023636;28;20528;-63
2021/07/08 02:17:31;;;;;;;12.32;8.95;;;;;;;15.66;100.00;96920.34;5037884;28;20051;-67
2021/07/08 02:19:57;;;;;;;16.52;9.85;;;;;;;15.84;100.00;96934.13;5042612;28;20041;-65
2021/07/08 02:22:23;;;;;;;18.48;9.90;;;;;;;16.01;100.00;96943.59;5050292;28;20321;-65
2021/07/08 02:24:48;;;;;;;14.45;10.23;;;;;;;15.98;100.00;96933.34;5043572;28;20045;-65
2021/07/08 02:27:14;;;;;;;15.13;10.40;;;;;;;15.61;100.00;96911.63;5024963;28;20055;-65
2021/07/08 02:29:39;;;;;;;23.33;12.27;;;;;;;15.48;100.00;96917.56;5040798;28;20064;-66
2021/07/08 02:32:07;;;;;;;24.38;14.10;;;;;;;15.45;100.00;96915.59;5036603;28;20033;-66
2021/07/08 02:34:33;;;;;;;22.33;13.35;;;;;;;15.43;100.00;96919.91;5028030;28;20044;-65
2021/07/08 02:36:58;;;;;;;23.85;13.98;;;;;;;15.52;100.00;96923.09;5056281;28;20494;-65
2021/07/08 02:39:23;;;;;;;25.70;14.13;;;;;;;15.56;100.00;96925.84;5052312;28;20053;-65
2021/07/08 02:41:49;;;;;;;22.83;13.95;;;;;;;15.50;100.00;96925.44;5036371;28;20051;-64
2021/07/08 02:44:14;;;;;;;23.45;13.63;;;;;;;15.49;100.00;96935.69;5023026;28;20082;-64
2021/07/08 02:46:40;;;;;;;24.08;13.90;;;;;;;15.49;100.00;96940.44;5040228;28;20385;-64
2021/07/08 02:49:05;;;;;;;26.52;13.43;;;;;;;15.53;100.00;96948.72;5026141;28;20446;-64
2021/07/08 02:51:31;;;;;;;24.33;13.85;;;;;;;15.57;100.00;96944.75;5041139;28;20743;-64
2021/07/08 02:53:56;;;;;;;19.63;11.98;;;;;;;15.64;100.00;96941.22;5040153;28;20041;-64
2021/07/08 02:56:22;;;;;;;19.70;12.18;;;;;;;15.76;100.00;96934.56;5030276;28;20056;-66
2021/07/08 02:58:47;;;;;;;18.95;11.95;;;;;;;15.81;100.00;96931.38;5041051;28;20045;-65
2021/07/08 03:01:13;;;;;;;20.85;12.38;;;;;;;15.92;100.00;96932.19;5033794;28;20124;-65
2021/07/08 03:03:39;;;;;;;16.08;10.60;;;;;;;16.03;100.00;96929.41;5037618;28;20064;-65
2021/07/08 03:06:04;;;;;;;18.90;11.40;;;;;;;16.06;100.00;96953.44;5029987;28;20096;-65
2021/07/08 03:08:29;;;;;;;17.42;10.05;;;;;;;16.02;100.00;96939.66;5043545;28;20045;-65
2021/07/08 03:10:55;;;;;;;15.32;9.07;;;;;;;16.02;100.00;96934.13;5046404;28;20478;-65
2021/07/08 03:13:20;;;;;;;13.10;8.85;;;;;;;16.09;100.00;96929.78;5026177;28;20045;-64
2021/07/08 03:15:46;;;;;;;14.30;8.98;;;;;;;16.11;100.00;96944.75;5040356;28;20552;-66
2021/07/08 03:18:11;;;;;;;12.73;9.18;;;;;;;16.12;100.00;96946.34;5034537;28;20072;-64
2021/07/08 03:20:37;;;;;;;14.05;8.43;;;;;;;16.17;100.00;96956.19;5044121;28;20037;-65
2021/07/08 03:23:04;;;;;;;12.55;8.00;;;;;;;16.23;100.00;96972.00;5037023;28;20083;-64
2021/07/08 03:25:30;;;;;;;12.38;8.00;;;;;;;16.24;100.00;96973.56;5042700;28;20037;-68
2021/07/08 03:27:57;;;;;;;12.68;8.57;;;;;;;16.19;100.00;96976.75;5043659;28;20103;-65
2021/07/08 03:30:24;;;;;;;13.65;8.50;;;;;;;16.22;100.00;96989.78;5033852;28;20057;-67
2021/07/08 03:32:52;;;;;;;12.75;8.30;;;;;;;16.18;100.00;96982.66;5043047;28;20033;-65
2021/07/08 03:35:18;;;;;;;12.60;8.60;;;;;;;16.08;100.00;96983.44;5038973;28;20048;-65
2021/07/08 03:37:43;;;;;;;15.15;9.20;;;;;;;16.12;100.00;96965.69;5043674;28;20604;-65
2021/07/08 03:40:12;;;;;;;14.40;8.70;;;;;;;16.24;100.00;96981.88;5037189;28;20043;-65
2021/07/08 03:42:39;;;;;;;15.43;8.32;;;;;;;16.33;100.00;96997.25;5031864;28;20045;-67
2021/07/08 03:45:07;;;;;;;11.20;7.93;;;;;;;16.38;100.00;97005.13;5028766;28;20049;-64
2021/07/08 03:47:33;;;;;;;12.32;8.18;;;;;;;16.27;100.00;96994.09;5041349;28;20043;-64
2021/07/08 03:49:58;;;;;;;13.88;7.80;;;;;;;16.20;100.00;96985.81;5043839;28;20486;-66
2021/07/08 03:52:24;;;;;;;13.60;8.15;;;;;;;16.28;100.00;96978.28;5037761;28;20990;-64
2021/07/08 03:54:49;;;;;;;13.45;7.88;;;;;;;16.46;100.00;96959.72;5035936;28;20080;-66
2021/07/08 03:57:15;;;;;;;13.02;7.78;;;;;;;16.59;100.00;96951.78;5030635;28;20040;-65
2021/07/08 03:59:40;;;;;;;13.05;7.90;;;;;;;16.47;100.00;96949.44;5035132;28;20544;-64
2021/07/08 04:02:06;;;;;;;12.57;8.38;;;;;;;16.02;100.00;96938.84;5039330;28;20416;-66
2021/07/08 04:04:34;;;;;;;19.83;10.63;;;;;;;15.79;100.00;96926.28;5041521;28;20486;-66
2021/07/08 04:06:59;;;;;;;17.08;9.70;;;;;;;15.68;100.00;96893.13;5044224;28;20436;-65
2021/07/08 04:09:25;;;;;;;17.58;10.32;;;;;;;15.67;100.00;96871.41;5036772;28;20045;-64
2021/07/08 04:11:50;;;;;;;16.65;10.52;;;;;;;15.79;100.00;96887.59;5043930;28;20053;-64
2021/07/08 04:14:16;;;;;;;11.80;8.00;;;;;;;15.91;100.00;96913.22;5053343;28;20048;-64
2021/07/08 04:16:41;;;;;;;10.63;7.78;;;;;;;15.93;100.00;96930.19;5040030;28;20044;-64
2021/07/08 04:19:06;;;;;;;11.38;7.30;;;;;;;16.08;100.00;96937.28;5033412;28;20405;-63
2021/07/08 04:21:32;;;;;;;10.32;7.10;;;;;;;16.13;100.00;96933.31;5038614;28;20132;-64
2021/07/08 04:23:57;;;;;;;10.40;7.55;;;;;;;16.19;100.00;96932.53;5038763;28;20126;-69
2021/07/08 04:26:23;;;;;;;12.38;7.15;;;;;;;16.26;100.00;96920.69;5052920;28;20520;-64
2021/07/08 04:28:48;;;;;;;10.70;6.75;;;;;;;16.24;100.00;96926.59;5039640;28;20502;-65
2021/07/08 04:31:16;;;;;;;12.02;7.20;;;;;;;16.16;100.00;96936.06;5038330;28;20485;-65
2021/07/08 04:33:41;;;;;;;10.05;7.18;;;;;;;16.10;100.00;96940.44;5040459;28;20103;-65
2021/07/08 04:36:10;;;;;;;10.70;7.45;;;;;;;16.15;100.00;96920.69;5035470;28;20045;-65
2021/07/08 04:38:36;;;;;;;11.70;7.22;;;;;;;16.18;100.00;96921.88;5040862;28;20164;-65
2021/07/08 04:41:01;;;;;;;8.95;6.30;;;;;;;16.27;100.00;96916.72;5032458;28;20512;-64
2021/07/08 04:43:27;;;;;;;8.38;5.93;;;;;;;16.46;100.00;96922.97;5018893;28;20095;-64
2021/07/08 04:45:52;;;;;;;8.95;5.85;;;;;;;16.54;100.00;96930.84;5018818;28;20061;-64
2021/07/08 04:48:18;;;;;;;9.82;4.72;;;;;;;16.62;100.00;96924.09;5015333;28;20064;-64
2021/07/08 04:50:43;;;;;;;6.25;4.78;;;;;;;16.76;100.00;96937.09;5016063;28;20033;-66
2021/07/08 04:53:09;;;;;;;4.32;3.50;;;;;;;16.89;100.00;96940.22;5015936;28;20045;-66
2021/07/08 04:55:34;;;;;;;3.83;3.20;;;;;;;17.02;100.00;96940.56;5018835;28;20124;-65
2021/07/08 04:58:00;;;;;;;4.90;2.92;;;;;;;17.12;100.00;96938.91;5018647;28;20037;-66
2021/07/08 05:00:25;;;;;;;5.57;2.92;;;;;;;17.14;100.00;96942.06;5019464;28;20083;-65
2021/07/08 05:02:52;;;;;;;4.55;2.70;;;;;;;17.14;100.00;96955.88;5031186;28;20041;-64
2021/07/08 05:05:18;;;;;;;11.55;7.38;;;;;;;17.19;100.00;96970.09;5032855;28;20086;-64
2021/07/08 05:07:44;;;;;;;6.85;5.00;;;;;;;17.20;100.00;96979.97;5046944;28;20559;-66
2021/07/08 05:10:14;;;;;;;3.85;3.20;;;;;;;17.18;100.00;96987.91;5046741;28;20040;-64
2021/07/08 05:12:41;;;;;;;7.85;3.50;;;;;;;17.11;100.00;96992.69;5030189;28;20085;-64
2021/07/08 05:15:09;;;;;;;6.00;4.07;;;;;;;17.06;100.00;96993.09;5037396;28;20033;-66
2021/07/08 05:17:34;;;;;;;6.90;4.50;;;;;;;16.86;100.00;96984.50;5041288;28;20476;-65
2021/07/08 05:20:00;;;;;;;7.03;4.68;;;;;;;16.73;100.00;96970.31;5041816;28;20036;-65
2021/07/08 05:22:26;;;;;;;5.47;4.15;;;;;;;16.72;100.00;96963.19;5033331;28;20052;-65
2021/07/08 05:24:51;;;;;;;7.80;4.25;;;;;;;16.80;100.00;96965.53;5028476;28;20048;-65
2021/07/08 05:27:17;;;;;;;5.68;4.15;;;;;;;16.95;100.00;96979.31;5035665;28;20040;-65
2021/07/08 05:29:46;;;;;;;9.20;4.50;;;;;;;16.87;100.00;96970.28;5041971;28;20049;-65
2021/07/08 05:32:15;;;;;;;7.15;4.28;;;;;;;16.80;100.00;96967.50;5029213;28;20045;-65
2021/07/08 05:34:41;;;;;;;9.57;4.43;;;;;;;16.81;100.00;96964.31;5041020;28;20041;-66
2021/07/08 05:37:08;;;;;;;5.88;4.43;;;;;;;16.65;100.00;96977.81;5034985;28;20520;-65
2021/07/08 05:39:34;;;;;;;8.63;5.35;;;;;;;16.38;100.00;96974.72;5037334;28;20036;-65
2021/07/08 05:41:59;;;;;;;8.57;6.05;;;;;;;16.03;100.00;96968.06;5033714;28;20106;-64
2021/07/08 05:44:24;;;;;;;13.50;6.45;;;;;;;16.01;100.00;96946.38;5034255;28;20041;-64
2021/07/08 05:46:50;;;;;;;12.00;6.53;;;;;;;16.14;100.00;96941.22;5041819;28;20063;-65
2021/07/08 05:49:16;;;;;;;10.27;5.88;;;;;;;16.37;100.00;96948.28;5036368;28;20044;-66
2021/07/08 05:51:41;;;;;;;8.45;6.03;;;;;;;16.67;100.00;96971.88;5029482;28;20468;-64
2021/07/08 05:54:07;;;;;;;8.25;5.25;;;;;;;16.84;100.00;96978.59;5034979;28;20136;-64
2021/07/08 05:56:32;;;;;;;6.63;4.85;;;;;;;16.92;100.00;96991.97;5033124;28;20123;-64
2021/07/08 05:58:57;;;;;;;7.53;4.63;;;;;;;16.97;100.00;96999.84;5041443;28;20049;-64
2021/07/08 06:01:23;;;;;;;6.95;4.75;;;;;;;17.06;100.00;96990.34;5036589;28;20072;-64
2021/07/08 06:03:49;;;;;;;5.72;3.78;;;;;;;17.06;100.00;96998.66;5036424;28;20136;-65
2021/07/08 06:06:15;;;;;;;5.15;3.95;;;;;;;17.19;100.00;97010.81;5021120;28;20067;-65
2021/07/08 06:08:42;;;;;;;7.20;4.40;;;;;;;17.17;100.00;97005.69;5041471;28;20037;-64
2021/07/08 06:11:08;;;;;;;8.35;4.88;;;;;;;16.99;100.00;96993.91;5033313;28;20048;-64
2021/07/08 06:13:33;;;;;;;8.18;4.68;;;;;;;16.90;100.00;96999.09;5033689;28;20090;-63
2021/07/08 06:15:58;;;;;;;7.70;4.78;;;;;;;16.89;100.00;96992.78;5042721;28;20068;-64
2021/07/08 06:18:24;;;;;;;9.25;5.90;;;;;;;16.85;100.00;96996.75;5034542;28;20775;-64
2021/07/08 06:20:49;;;;;;;9.20;5.03;;;;;;;16.88;100.00;96995.94;5037855;28;20517;-64
2021/07/08 06:23:15;;;;;;;6.22;4.72;;;;;;;16.95;100.00;96985.63;5034101;28;20032;-64
2021/07/08 06:25:41;;;;;;;7.35;4.65;;;;;;;17.08;100.00;96983.19;5027292;28;20041;-64
2021/07/08 06:28:07;;;;;;;6.90;4.70;;;;;;;17.14;100.00;96980.78;5043161;28;20113;-64
2021/07/08 06:30:32;;;;;;;8.15;4.22;;;;;;;17.24;100.00;96974.44;5055701;28;20398;-64
2021/07/08 06:32:58;;;;;;;7.35;4.15;;;;;;;17.34;100.00;96962.50;5040311;28;20048;-66
2021/07/08 06:35:23;;;;;;;5.97;4.15;;;;;;;17.42;100.00;96984.63;5035719;28;20984;-64
2021/07/08 06:37:48;;;;;;;6.88;4.07;;;;;;;17.44;100.00;97002.38;5042108;28;20425;-63
2021/07/08 06:40:17;;;;;;;5.20;3.65;;;;;;;17.36;100.00;97004.41;5034775;28;20570;-63
2021/07/08 06:42:43;;;;;;;5.72;3.88;;;;;;;17.08;100.00;97001.78;5034403;28;20410;-64
2021/07/08 06:45:12;;;;;;;5.53;4.43;;;;;;;16.98;100.00;97000.66;5030170;28;20052;-64
2021/07/08 06:47:41;;;;;;;5.57;4.30;;;;;;;16.86;100.00;97001.88;5032347;28;20047;-63
2021/07/08 06:50:07;;;;;;;;;;;;;;;16.81;100.00;97010.56;5032282;28;20036;-64
2021/07/08 06:52:32;;;;;;;4.57;3.80;;;;;;;16.79;100.00;97008.19;5040391;28;19920;-65
2021/07/08 06:54:58;;;;;;;6.22;4.78;;;;;;;16.72;100.00;97012.97;5030953;28;20049;-64
2021/07/08 06:57:23;;;;;;;6.82;4.25;;;;;;;16.74;100.00;97010.56;5028205;28;20060;-64
2021/07/08 06:59:49;;;;;;;6.15;4.20;;;;;;;16.69;100.00;97011.78;5036085;28;20049;-64
2021/07/08 07:02:14;;;;;;;5.85;4.20;;;;;;;16.61;100.00;97004.69;5032618;28;20084;-64
2021/07/08 07:04:39;;;;;;;7.40;4.95;;;;;;;16.58;100.00;97003.53;5036060;28;20049;-63
2021/07/08 07:07:05;;;;;;;6.43;5.15;;;;;;;16.54;100.00;97008.25;5024998;28;20044;-63
2021/07/08 07:09:31;;;;;;;6.70;4.90;;;;;;;16.53;100.00;97015.00;5048993;28;20045;-64
2021/07/08 07:11:56;;;;;;;7.03;4.80;;;;;;;16.69;100.00;97022.84;5048436;28;20044;-63
2021/07/08 07:14:21;;;;;;;6.20;4.00;;;;;;;16.83;100.00;97027.56;5034585;28;20356;-62
2021/07/08 07:16:47;;;;;;;7.43;4.95;;;;;;;16.94;100.00;97030.28;5038155;28;20041;-62
2021/07/08 07:19:12;;;;;;;9.18;5.10;;;;;;;16.95;100.00;97023.59;5035021;28;20040;-63
2021/07/08 07:21:38;;;;;;;6.28;4.57;;;;;;;17.00;100.00;97003.81;5037987;28;20045;-63
2021/07/08 07:24:04;;;;;;;8.45;5.15;;;;;;;17.09;100.00;96992.31;5035304;28;20128;-64
2021/07/08 07:26:29;;;;;;;9.30;5.20;;;;;;;17.17;100.00;96991.84;5037901;28;20042;-65
2021/07/08 07:28:54;;;;;;;7.35;4.85;;;;;;;17.24;100.00;97001.31;5048121;28;20083;-64
2021/07/08 07:31:20;;;;;;;6.20;4.80;;;;;;;17.28;100.00;96999.31;5039947;28;20045;-64
2021/07/08 07:33:46;;;;;;;8.02;4.88;;;;;;;17.28;100.00;97004.84;5042807;28;20040;-64
2021/07/08 07:36:12;;;;;;;12.07;5.53;;;;;;;17.06;100.00;96998.66;5035288;28;20045;-64
2021/07/08 07:38:39;;;;;;;9.02;5.88;;;;;;;16.88;100.00;96996.72;5040265;28;20052;-64
2021/07/08 07:41:06;;;;;;;8.25;5.18;;;;;;;16.89;100.00;96998.31;5028661;28;20048;-65
2021/07/08 07:43:31;;;;;;;8.30;5.85;;;;;;;16.87;100.00;97006.25;5032493;28;20565;-64
2021/07/08 07:45:57;;;;;;;7.25;5.43;;;;;;;16.90;100.00;97008.19;5036359;28;20048;-64
2021/07/08 07:48:22;;;;;;;6.47;4.90;;;;;;;17.00;100.00;97017.66;5028634;28;20060;-64
2021/07/08 07:50:48;;;;;;;6.28;4.40;;;;;;;16.84;100.00;97022.84;5037903;28;20105;-66
2021/07/08 07:53:13;;;;;;;7.93;5.30;;;;;;;16.54;100.00;97002.72;5045541;28;20128;-64
2021/07/08 07:55:39;;;;;;;8.27;5.90;;;;;;;16.29;100.00;96982.66;5045770;28;20441;-64
2021/07/08 07:58:05;;;;;;;13.05;6.57;;;;;;;16.22;100.00;96972.38;5047261;28;20040;-62
2021/07/08 08:00:32;;;;;;;10.77;7.30;;;;;;;16.18;100.00;96974.38;5041860;28;20045;-64
2021/07/08 08:02:57;;;;;;;10.57;6.40;;;;;;;16.25;100.00;96977.13;5044027;28;20052;-63
2021/07/08 08:10:38;;;;;;;8.25;6.18;;;;;;;16.18;100.00;96988.19;5032885;28;20075;-63
2021/07/08 08:13:05;;;;;;;6.97;5.13;;;;;;;16.25;100.00;96988.19;5037469;28;20482;-64
2021/07/08 08:15:31;;;;;;;6.70;4.97;;;;;;;16.31;100.00;96983.03;5032140;28;20068;-65
2021/07/08 08:18:00;;;;;;;7.78;4.90;;;;;;;16.49;100.00;96988.53;5043424;28;20037;-65
2021/07/08 08:20:27;;;;;;;10.25;5.68;;;;;;;16.59;100.00;97004.31;5038407;28;20556;-65
2021/07/08 08:22:52;;;;;;;11.30;5.15;;;;;;;16.75;100.00;97023.22;5035704;28;20416;-64
2021/07/08 08:25:17;;;;;;;6.38;4.75;;;;;;;16.89;100.00;97025.97;5023523;28;20140;-64
2021/07/08 08:27:43;;;;;;;6.80;4.32;;;;;;;16.96;100.00;97027.91;5034163;28;20048;-65
2021/07/08 08:30:12;;;;;;;6.80;4.13;;;;;;;17.00;100.00;97031.47;5040931;28;20178;-68
2021/07/08 08:32:37;;;;;;;10.65;6.40;;;;;;;17.12;100.00;97042.09;5030357;28;20041;-66
2021/07/08 08:35:04;;;;;;;5.95;3.83;;;;;;;17.10;100.00;97044.47;5034163;28;20505;-63
2021/07/08 08:37:30;;;;;;;6.82;4.32;;;;;;;17.03;100.00;97052.00;5034223;28;20049;-65
2021/07/08 08:39:55;;;;;;;7.45;4.07;;;;;;;17.04;100.00;97050.84;5038390;28;20043;-64
2021/07/08 08:42:21;;;;;;;7.93;4.20;;;;;;;16.99;100.00;97044.50;5031877;28;20037;-62
2021/07/08 08:44:46;;;;;;;6.57;4.55;;;;;;;17.00;100.00;97042.56;5058219;28;20045;-63
2021/07/08 08:47:12;;;;;;;5.25;3.70;;;;;;;17.09;100.00;97033.81;5045634;28;20059;-64
2021/07/08 08:49:41;;;;;;;6.03;4.35;;;;;;;17.24;100.00;97018.72;5040393;28;20041;-64
2021/07/08 08:52:08;;;;;;;7.53;3.80;;;;;;;17.35;100.00;97002.03;5036171;28;20087;-64
2021/07/08 08:54:34;;;;;;;5.43;3.70;;;;;;;17.41;100.00;96999.63;5034502;28;20061;-64
2021/07/08 08:57:01;;;;;;;6.57;3.85;;;;;;;17.26;100.00;96996.16;5039113;28;20068;-65
2021/07/08 08:59:27;;;;;;;6.40;3.80;;;;;;;17.17;100.00;96991.06;5025292;28;20049;-65
2021/07/08 09:02:13;;;;;;;5.60;3.30;;;;;;;17.15;100.00;96985.16;5040189;28;20102;-63
2021/07/08 09:04:38;;;;;;;4.75;3.47;;;;;;;17.12;100.00;96980.41;5028746;28;20743;-64
2021/07/08 09:07:23;;;;;;;4.63;3.22;;;;;;;17.11;100.00;96996.25;5034338;28;20049;-63
2021/07/08 09:09:55;;;;;;;5.95;4.05;;;;;;;17.15;100.00;97016.38;5040999;28;20048;-64
2021/07/08 09:12:24;;;;;;;4.05;2.85;;;;;;;17.14;100.00;97019.53;5027521;28;20041;-65
2021/07/08 09:15:14;;;;;;;6.38;3.85;;;;;;;17.15;100.00;97030.22;5032401;28;20041;-64
2021/07/08 09:17:41;;;;;;;5.45;3.60;;;;;;;17.15;100.00;97027.44;5039817;28;20044;-65
2021/07/08 09:20:09;;;;;;;5.25;3.60;;;;;;;17.07;100.00;97028.69;5028848;28;20052;-63
2021/07/08 09:22:34;;;;;;;3.33;2.33;;;;;;;17.04;100.00;97037.00;5039387;28;20123;-64
2021/07/08 09:25:20;;;;;;;4.80;3.25;;;;;;;17.11;100.00;97059.13;5037302;28;20474;-63
2021/07/08 09:27:47;;;;;;;4.15;2.90;;;;;;;17.03;100.00;97071.38;5032917;28;20478;-66
2021/07/08 09:30:26;;;;;;;6.30;2.72;;;;;;;16.87;100.00;97077.34;5022902;28;20118;-65
2021/07/08 09:32:51;;;;;;;5.18;3.78;;;;;;;16.66;100.00;97067.91;5021761;28;20660;-65
2021/07/08 09:35:38;;;;;;;5.35;4.35;;;;;;;16.53;100.00;97072.25;5011495;28;20079;-65
2021/07/08 09:38:08;;;;;;;6.82;4.45;;;;;;;16.54;100.00;97074.63;5022860;28;20045;-64
2021/07/08 09:40:34;;;;;;;8.38;5.30;;;;;;;16.56;100.00;97072.22;5023464;28;20060;-64
2021/07/08 09:42:59;;;;;;;8.60;4.20;;;;;;;16.66;100.00;97072.66;5008485;28;20041;-65
2021/07/08 09:45:25;;;;;;;5.70;4.25;;;;;;;16.70;100.00;97063.13;5025121;28;20057;-64
2021/07/08 09:47:50;;;;;;;9.07;4.95;;;;;;;16.50;100.00;97056.47;5050483;28;20073;-67
2021/07/08 09:50:24;;;;;;;7.88;4.43;;;;;;;16.37;100.00;97061.63;5037425;28;20131;-61
2021/07/08 09:53:21;;;;;;;7.25;3.95;;;;;;;16.46;100.00;97084.13;5043703;28;20045;-62
2021/07/08 09:58:32;;;;;;;5.18;4.13;;;;;;;16.48;100.00;97067.91;5033189;28;20052;-63
2021/07/08 10:01:11;;;;;;;5.00;3.88;;;;;;;16.19;100.00;97070.69;5031690;28;20106;-62
2021/07/08 10:03:37;;;;;;;7.25;4.82;;;;;;;16.23;100.00;97079.00;5034680;28;20064;-64
2021/07/08 10:06:03;;;;;;;5.97;4.22;;;;;;;16.39;100.00;97086.88;5034533;28;20148;-62
2021/07/08 10:08:29;;;;;;;8.02;4.35;;;;;;;16.52;100.00;97087.28;5040167;28;20045;-63
2021/07/08 10:10:54;;;;;;;7.93;5.30;;;;;;;16.63;100.00;97083.28;5043708;28;20043;-63
2021/07/08 10:13:20;;;;;;;7.00;5.40;;;;;;;16.55;100.00;97084.50;5032230;28;20049;-62
2021/07/08 10:15:47;;;;;;;11.23;7.18;;;;;;;16.57;100.00;97098.72;5023977;28;20045;-63
2021/07/08 10:18:14;;;;;;;10.82;4.03;;;;;;;16.51;100.00;97113.31;5016940;28;20049;-64
2021/07/08 10:20:42;;;;;;;5.40;3.85;;;;;;;16.62;100.00;97120.44;5045520;28;20127;-62
2021/07/08 10:23:10;;;;;;;7.97;4.50;;;;;;;16.80;100.00;97137.03;5054917;28;20127;-64
2021/07/08 10:25:36;;;;;;;8.63;4.68;;;;;;;16.92;100.00;97132.28;5061519;28;20059;-64
2021/07/08 10:28:02;;;;;;;6.18;3.95;;;;;;;16.91;100.00;97122.41;5056010;28;20098;-62
2021/07/08 10:30:30;;;;;;;4.10;3.17;;;;;;;16.84;100.00;97116.91;5029954;28;20045;-65
2021/07/08 10:32:57;;;;;;;6.28;4.30;;;;;;;16.29;100.00;97104.25;5041977;28;20045;-62
2021/07/08 10:35:45;;;;;;;6.75;4.35;;;;;;;15.98;100.00;97098.31;5026171;28;20569;-64
2021/07/08 10:38:40;;;;;;;11.43;6.38;;;;;;;15.76;100.00;97056.84;5037038;28;20052;-63
2021/07/08 10:41:11;;;;;;;9.50;6.80;;;;;;;15.69;100.00;97073.38;5042835;28;20500;-60
2021/07/08 10:43:42;;;;;;;10.82;7.57;;;;;;;15.82;100.00;97093.94;5046068;28;20060;-64
2021/07/08 10:46:15;;;;;;;23.85;11.10;;;;;;;15.99;100.00;97099.88;5040750;28;20547;-63
2021/07/08 10:48:51;;;;;;;9.93;7.13;;;;;;;16.01;100.00;97116.88;5041545;28;20080;-62
2021/07/08 10:51:37;;;;;;;11.40;6.30;;;;;;;16.23;100.00;97126.75;5033653;28;20581;-62
2021/07/08 10:54:28;;;;;;;8.35;5.75;;;;;;;16.31;100.00;97105.44;5036619;28;20100;-61
2021/07/08 10:56:55;;;;;;;9.73;5.85;;;;;;;16.15;100.00;97088.44;5038301;28;20056;-63
2021/07/08 10:59:20;;;;;;;10.23;6.43;;;;;;;16.03;100.00;97084.91;5029131;28;20048;-62
2021/07/08 11:01:51;;;;;;;10.80;6.50;;;;;;;16.11;100.00;97093.19;5049598;28;20049;-63
2021/07/08 11:04:46;;;;;;;10.60;6.05;;;;;;;16.07;100.00;97076.59;5041989;28;20046;-63
2021/07/08 11:07:13;;;;;;;9.35;5.90;;;;;;;15.93;100.00;97106.97;5022603;28;20053;-63
2021/07/08 11:10:05;;;;;;;13.27;5.70;;;;;;;16.13;100.00;97133.03;5040981;28;20037;-63
2021/07/08 11:12:33;;;;;;;10.93;6.75;;;;;;;16.17;100.00;97133.06;5060409;28;20051;-64
2021/07/08 11:14:59;;;;;;;9.77;6.72;;;;;;;16.17;100.00;97125.56;5029685;28;20037;-65
2021/07/08 11:17:25;;;;;;;17.60;10.15;;;;;;;16.30;100.00;97142.56;5007681;28;20505;-63
2021/07/08 11:19:53;;;;;;;9.45;6.45;;;;;;;16.41;100.00;97142.56;5020960;28;20045;-63
2021/07/08 11:22:21;;;;;;;6.50;4.85;;;;;;;16.33;100.00;97140.97;5015669;28;20408;-63
2021/07/08 11:24:50;;;;;;;12.68;6.13;;;;;;;16.29;100.00;97115.31;5013187;28;20104;-64
2021/07/08 11:27:29;;;;;;;8.63;6.10;;;;;;;16.24;100.00;97099.91;5019111;28;20049;-64
2021/07/08 11:29:58;;;;;;;10.40;6.60;;;;;;;15.92;100.00;97039.91;5027032;28;20037;-64